createdAt,value
2023-05-25T00:01:03.626Z,5.17
2023-05-25T00:03:33.844Z,5.60
2023-05-25T00:06:04.270Z,5.80
2023-05-25T00:08:31.222Z,5.27
2023-05-25T00:10:58.192Z,5.07
2023-05-25T00:13:25.327Z,4.80
2023-05-25T00:15:52.177Z,4.93
2023-05-25T00:18:19.087Z,4.93
2023-05-25T00:20:47.874Z,5.57
2023-05-25T00:23:14.872Z,5.10
2023-05-25T00:25:41.778Z,5.90
2023-05-25T00:28:09.006Z,5.40
2023-05-25T00:30:35.896Z,6.63
2023-05-25T00:33:03.141Z,5.33
2023-05-25T00:35:30.340Z,5.37
2023-05-25T00:37:57.141Z,5.00
2023-05-25T00:40:23.948Z,5.20
2023-05-25T00:42:52.421Z,5.27
2023-05-25T00:45:19.178Z,5.30
2023-05-25T00:47:46.794Z,5.00
2023-05-25T00:50:15.818Z,5.23
2023-05-25T00:52:42.735Z,5.67
2023-05-25T00:55:16.549Z,5.90
2023-05-25T00:57:46.046Z,5.40
2023-05-25T01:00:14.755Z,5.77
2023-05-25T01:02:43.800Z,5.40
2023-05-25T01:05:13.998Z,5.67
2023-05-25T01:07:43.990Z,5.03
2023-05-25T01:10:14.646Z,6.07
2023-05-25T01:12:44.425Z,5.60
2023-05-25T01:15:12.210Z,5.50
2023-05-25T01:17:39.320Z,5.73
2023-05-25T01:20:11.950Z,5.13
2023-05-25T01:23:09.047Z,5.13
2023-05-25T01:25:44.177Z,5.47
2023-05-25T01:28:20.857Z,5.90
2023-05-25T01:30:49.901Z,5.27
2023-05-25T01:33:19.253Z,5.20
2023-05-25T01:35:47.212Z,4.87
2023-05-25T01:38:14.492Z,5.10
2023-05-25T01:40:41.271Z,5.03
2023-05-25T01:43:08.255Z,4.80
2023-05-25T01:45:35.779Z,6.00
2023-05-25T01:48:21.415Z,5.83
2023-05-25T01:50:53.987Z,5.10
2023-05-25T01:53:35.954Z,6.43
2023-05-25T01:56:08.515Z,6.03
2023-05-25T01:58:42.430Z,5.67
2023-05-25T02:01:10.565Z,6.20
2023-05-25T02:03:39.947Z,5.40
2023-05-25T02:06:08.353Z,6.03
2023-05-25T02:08:35.149Z,5.90
2023-05-25T02:11:02.455Z,6.47
2023-05-25T02:13:29.404Z,6.23
2023-05-25T02:15:56.754Z,6.77
2023-05-25T02:18:23.977Z,5.57
2023-05-25T02:20:51.893Z,5.97
2023-05-25T02:23:19.350Z,6.43
2023-05-25T02:25:46.790Z,5.73
2023-05-25T02:28:15.034Z,5.30
2023-05-25T02:30:42.012Z,5.93
2023-05-25T02:33:08.829Z,5.47
2023-05-25T02:35:35.609Z,6.47
2023-05-25T02:38:02.631Z,6.30
2023-05-25T02:40:29.622Z,6.00
2023-05-25T02:42:56.467Z,5.97
2023-05-25T02:45:23.441Z,6.80
2023-05-25T02:47:50.461Z,8.50
2023-05-25T02:50:17.574Z,10.03
2023-05-25T02:52:44.545Z,10.10
2023-05-25T02:55:13.625Z,8.20
2023-05-25T02:57:41.048Z,8.33
2023-05-25T03:00:08.472Z,8.40
2023-05-25T03:02:35.312Z,7.87
2023-05-25T03:05:04.452Z,8.43
2023-05-25T03:07:31.775Z,7.57
2023-05-25T03:09:59.510Z,8.37
2023-05-25T03:12:26.297Z,9.37
2023-05-25T03:14:53.345Z,7.97
2023-05-25T03:17:20.194Z,7.50
2023-05-25T03:19:46.994Z,8.30
2023-05-25T03:22:13.990Z,6.37
2023-05-25T03:24:41.949Z,6.53
2023-05-25T03:27:09.264Z,6.37
2023-05-25T03:29:36.273Z,6.33
2023-05-25T03:32:03.159Z,7.77
2023-05-25T03:34:30.379Z,6.57
2023-05-25T03:36:57.453Z,6.50
2023-05-25T03:39:24.500Z,6.20
2023-05-25T03:41:51.410Z,6.57
2023-05-25T03:44:18.472Z,6.43
2023-05-25T03:46:45.516Z,5.83
2023-05-25T03:49:14.344Z,5.90
2023-05-25T03:51:42.199Z,6.43
2023-05-25T03:54:09.078Z,6.40
2023-05-25T03:56:36.102Z,6.50
2023-05-25T03:59:03.461Z,6.23
2023-05-25T04:01:30.413Z,6.77
2023-05-25T04:03:57.713Z,6.80
2023-05-25T04:06:25.694Z,6.47
2023-05-25T04:08:53.112Z,5.70
2023-05-25T04:11:20.180Z,5.97
2023-05-25T04:13:47.178Z,6.10
2023-05-25T04:16:14.942Z,5.93
2023-05-25T04:18:41.858Z,5.83
2023-05-25T04:21:08.887Z,6.10
2023-05-25T04:23:35.792Z,6.07
2023-05-25T04:26:03.650Z,5.57
2023-05-25T04:28:30.949Z,4.73
2023-05-25T04:30:59.826Z,4.97
2023-05-25T04:33:30.118Z,4.27
2023-05-25T04:35:59.921Z,4.93
2023-05-25T04:38:26.713Z,4.30
2023-05-25T04:40:54.092Z,4.60
2023-05-25T04:43:21.217Z,3.70
2023-05-25T04:45:48.150Z,4.10
2023-05-25T04:48:15.333Z,3.43
2023-05-25T04:50:42.140Z,3.57
2023-05-25T04:53:09.615Z,4.10
2023-05-25T04:55:36.343Z,3.90
2023-05-25T04:58:06.028Z,4.00
2023-05-25T05:00:34.506Z,4.00
2023-05-25T05:03:01.410Z,3.40
2023-05-25T05:05:28.468Z,3.17
2023-05-25T05:07:55.752Z,3.10
2023-05-25T05:10:22.802Z,3.50
2023-05-25T05:12:49.579Z,3.77
2023-05-25T05:15:16.938Z,3.00
2023-05-25T05:17:43.642Z,2.70
2023-05-25T05:20:10.783Z,3.10
2023-05-25T05:22:38.224Z,3.07
2023-05-25T05:25:05.774Z,2.67
2023-05-25T05:27:32.923Z,2.97
2023-05-25T05:29:59.662Z,3.60
2023-05-25T05:32:26.816Z,3.30
2023-05-25T05:34:53.652Z,3.10
2023-05-25T05:37:20.818Z,2.90
2023-05-25T05:39:47.534Z,3.30
2023-05-25T05:42:14.525Z,3.40
2023-05-25T05:44:41.296Z,3.17
2023-05-25T05:47:08.294Z,2.90
2023-05-25T05:49:35.019Z,3.40
2023-05-25T05:52:03.015Z,2.60
2023-05-25T05:54:29.916Z,3.00
2023-05-25T05:56:56.962Z,3.30
2023-05-25T05:59:24.421Z,2.80
2023-05-25T06:01:51.279Z,2.73
2023-05-25T06:04:19.255Z,3.10
2023-05-25T06:06:46.181Z,2.80
2023-05-25T06:09:13.889Z,2.93
2023-05-25T06:11:40.660Z,3.50
2023-05-25T06:14:07.700Z,2.67
2023-05-25T06:16:34.506Z,3.03
2023-05-25T06:19:01.706Z,3.27
2023-05-25T06:21:28.845Z,3.23
2023-05-25T06:23:57.795Z,3.03
2023-05-25T06:26:25.133Z,3.65
2023-05-25T06:28:51.943Z,3.30
2023-05-25T06:31:18.896Z,2.97
2023-05-25T06:33:46.067Z,3.95
2023-05-25T06:36:15.740Z,3.72
2023-05-25T06:38:43.269Z,3.35
2023-05-25T06:41:12.867Z,3.45
2023-05-25T06:43:39.703Z,4.05
2023-05-25T06:46:06.521Z,2.95
2023-05-25T06:48:33.279Z,2.83
2023-05-25T06:51:00.376Z,3.13
2023-05-25T06:53:27.098Z,3.45
2023-05-25T06:55:54.091Z,3.00
2023-05-25T06:58:20.810Z,2.85
2023-05-25T07:00:47.574Z,3.17
2023-05-25T07:03:14.554Z,3.50
2023-05-25T07:05:43.485Z,3.33
2023-05-25T07:08:10.628Z,2.83
2023-05-25T07:10:37.532Z,3.53
2023-05-25T07:13:04.683Z,3.47
2023-05-25T07:15:31.456Z,3.40
2023-05-25T07:17:58.765Z,3.30
2023-05-25T07:20:25.929Z,3.63
2023-05-25T07:22:53.685Z,3.60
2023-05-25T07:25:49.779Z,3.17
2023-05-25T07:28:16.675Z,3.55
2023-05-25T07:30:43.497Z,4.70
2023-05-25T07:33:10.492Z,3.40
2023-05-25T07:35:37.487Z,3.13
2023-05-25T07:38:04.637Z,3.63
2023-05-25T07:40:31.494Z,3.28
2023-05-25T07:42:58.274Z,3.63
2023-05-25T07:45:25.012Z,3.38
2023-05-25T07:47:51.781Z,3.22
2023-05-25T07:50:18.980Z,3.38
2023-05-25T07:52:46.543Z,3.00
2023-05-25T07:55:13.837Z,3.22
2023-05-25T07:57:40.763Z,3.40
2023-05-25T08:00:08.540Z,3.65
2023-05-25T08:02:35.368Z,3.40
2023-05-25T08:05:05.739Z,3.05
2023-05-25T08:07:33.928Z,3.47
2023-05-25T08:10:01.049Z,2.90
2023-05-25T08:12:46.111Z,3.20
2023-05-25T08:15:14.325Z,3.40
2023-05-25T08:17:41.817Z,3.25
2023-05-25T08:20:09.328Z,3.17
2023-05-25T08:22:36.616Z,3.72
2023-05-25T08:25:04.481Z,3.38
2023-05-25T08:27:33.500Z,2.80
2023-05-25T08:30:02.208Z,3.08
2023-05-25T08:32:28.985Z,3.17
2023-05-25T08:34:56.101Z,2.90
2023-05-25T08:37:24.904Z,3.30
2023-05-25T08:39:51.746Z,3.22
2023-05-25T08:42:18.625Z,3.15
2023-05-25T08:44:45.540Z,3.08
2023-05-25T08:47:13.403Z,3.20
2023-05-25T08:49:41.729Z,3.40
2023-05-25T08:52:14.397Z,3.08
2023-05-25T08:54:44.381Z,3.60
2023-05-25T08:57:31.797Z,3.28
2023-05-25T09:00:11.161Z,3.38
2023-05-25T09:02:47.202Z,3.40
2023-05-25T09:05:14.339Z,3.25
2023-05-25T09:07:43.669Z,3.38
2023-05-25T09:10:15.039Z,3.58
2023-05-25T09:12:43.456Z,3.13
2023-05-25T09:15:11.588Z,3.15
2023-05-25T09:17:38.932Z,3.50
2023-05-25T09:20:06.838Z,3.30
2023-05-25T09:22:33.994Z,3.88
2023-05-25T09:25:01.376Z,3.50
2023-05-25T09:27:28.081Z,3.50
2023-05-25T09:30:00.230Z,3.80
2023-05-25T09:32:27.586Z,3.53
2023-05-25T09:34:56.925Z,3.55
2023-05-25T09:37:24.040Z,3.63
2023-05-25T09:39:51.615Z,3.70
2023-05-25T09:42:18.407Z,3.33
2023-05-25T09:44:45.190Z,3.45
2023-05-25T09:47:17.698Z,3.38
2023-05-25T09:49:47.585Z,3.53
2023-05-25T09:52:15.768Z,3.17
2023-05-25T09:54:50.260Z,3.35
2023-05-25T09:57:18.568Z,3.90
2023-05-25T09:59:46.294Z,3.25
2023-05-25T10:02:14.633Z,3.92
2023-05-25T10:04:41.836Z,3.20
2023-05-25T10:07:09.271Z,3.60
2023-05-25T10:09:43.389Z,3.13
2023-05-25T10:12:11.301Z,3.75
2023-05-25T10:14:39.052Z,3.72
2023-05-25T10:17:10.293Z,3.70
2023-05-25T10:19:42.200Z,3.85
2023-05-25T10:22:16.409Z,3.20
2023-05-25T10:24:56.294Z,4.75
2023-05-25T10:27:47.973Z,3.70
2023-05-25T10:30:16.071Z,3.60
2023-05-25T10:32:44.178Z,3.17
2023-05-25T10:35:12.459Z,3.65
2023-05-25T10:37:40.421Z,3.67
2023-05-25T10:40:10.960Z,3.63
2023-05-25T10:42:38.062Z,3.22
2023-05-25T10:45:07.749Z,3.40
2023-05-25T10:47:42.111Z,3.40
2023-05-25T10:50:20.087Z,3.47
2023-05-25T10:52:57.471Z,3.42
2023-05-25T10:55:43.109Z,3.20
2023-05-25T10:58:12.556Z,3.65
2023-05-25T11:00:41.041Z,3.50
2023-05-25T11:03:08.656Z,3.30
2023-05-25T11:05:40.147Z,3.40
2023-05-25T11:08:12.447Z,6.65
2023-05-25T11:10:48.637Z,3.30
2023-05-25T11:13:24.528Z,3.60
2023-05-25T11:16:10.204Z,3.90
2023-05-25T11:18:44.114Z,3.05
2023-05-25T11:21:23.402Z,3.33
2023-05-25T11:23:53.622Z,3.40
2023-05-25T11:26:24.850Z,3.50
2023-05-25T11:28:53.209Z,3.40
2023-05-25T11:31:23.568Z,3.40
2023-05-25T11:33:57.547Z,3.30
2023-05-25T11:36:25.009Z,3.15
2023-05-25T11:39:04.965Z,3.40
2023-05-25T11:41:37.452Z,3.53
2023-05-25T11:44:06.770Z,3.50
2023-05-25T11:46:35.040Z,3.95
2023-05-25T11:49:01.994Z,3.10
2023-05-25T11:51:30.275Z,3.38
2023-05-25T11:53:57.241Z,3.40
2023-05-25T11:56:34.936Z,3.38
2023-05-25T11:59:03.051Z,3.60
2023-05-25T12:01:32.066Z,3.17
2023-05-25T12:04:08.354Z,3.10
2023-05-25T12:06:40.272Z,3.30
2023-05-25T12:09:13.169Z,3.33
2023-05-25T12:11:40.357Z,3.13
2023-05-25T12:14:07.834Z,2.83
2023-05-25T12:16:38.967Z,3.45
2023-05-25T12:19:11.604Z,3.05
2023-05-25T12:21:40.603Z,3.30
2023-05-25T12:24:09.237Z,3.53
2023-05-25T12:26:47.964Z,3.65
2023-05-25T12:29:15.084Z,3.50
2023-05-25T12:31:42.065Z,3.08
2023-05-25T12:34:17.566Z,3.08
2023-05-25T12:36:55.371Z,3.22
2023-05-25T12:39:31.398Z,3.10
2023-05-25T12:41:59.501Z,3.13
2023-05-25T12:44:31.740Z,3.15
2023-05-25T12:47:15.061Z,2.90
2023-05-25T12:49:43.767Z,3.10
2023-05-25T12:52:11.816Z,2.90
2023-05-25T12:54:43.995Z,2.95
2023-05-25T12:57:12.405Z,3.10
2023-05-25T12:59:40.804Z,2.78
2023-05-25T13:02:08.450Z,2.78
2023-05-25T13:04:36.532Z,2.92
2023-05-25T13:07:03.888Z,3.15
2023-05-25T13:09:31.703Z,3.25
2023-05-25T13:12:26.805Z,3.03
2023-05-25T13:14:53.582Z,3.60
2023-05-25T13:17:20.351Z,3.30
2023-05-25T13:19:47.165Z,3.25
2023-05-25T13:22:14.197Z,3.13
2023-05-25T13:24:41.145Z,3.38
2023-05-25T13:27:07.886Z,3.67
2023-05-25T13:29:34.967Z,3.43
2023-05-25T13:32:01.790Z,3.40
2023-05-25T13:34:28.903Z,3.03
2023-05-25T13:36:56.010Z,3.20
2023-05-25T13:39:22.776Z,3.30
2023-05-25T13:41:49.503Z,3.27
2023-05-25T13:44:17.710Z,3.40
2023-05-25T13:46:44.743Z,3.20
2023-05-25T13:49:13.372Z,3.77
2023-05-25T13:51:44.916Z,3.50
2023-05-25T13:54:12.916Z,3.17
2023-05-25T13:56:39.897Z,3.70
2023-05-25T13:59:06.918Z,3.60
2023-05-25T14:01:34.487Z,3.63
2023-05-25T14:04:01.842Z,3.40
2023-05-25T14:06:29.044Z,3.40
2023-05-25T14:08:55.857Z,3.47
2023-05-25T14:11:28.140Z,3.70
2023-05-25T14:13:55.871Z,3.03
2023-05-25T14:16:23.032Z,4.20
2023-05-25T14:18:49.975Z,3.83
2023-05-25T14:21:17.201Z,3.77
2023-05-25T14:23:44.241Z,3.57
2023-05-25T14:26:11.155Z,4.00
2023-05-25T14:28:38.137Z,3.77
2023-05-25T14:31:05.084Z,3.73
2023-05-25T14:33:55.825Z,3.80
2023-05-25T14:36:22.577Z,4.03
2023-05-25T14:38:49.612Z,4.60
2023-05-25T14:41:16.717Z,4.03
2023-05-25T14:43:43.500Z,3.30
2023-05-25T14:46:10.669Z,4.10
2023-05-25T14:48:37.844Z,4.30
2023-05-25T14:51:04.697Z,4.10
2023-05-25T14:53:31.730Z,3.73
2023-05-25T14:55:58.753Z,4.10
2023-05-25T14:58:25.584Z,4.40
2023-05-25T15:00:52.672Z,4.13
2023-05-25T15:03:19.743Z,3.90
2023-05-25T15:05:46.855Z,4.13
2023-05-25T15:08:13.846Z,4.20
2023-05-25T15:11:14.634Z,4.07
2023-05-25T15:13:41.468Z,4.20
2023-05-25T15:16:12.376Z,4.20
2023-05-25T15:18:39.206Z,4.33
2023-05-25T15:21:06.672Z,4.07
2023-05-25T15:23:33.586Z,4.00
2023-05-25T15:26:04.618Z,3.83
2023-05-25T15:28:31.731Z,4.50
2023-05-25T15:31:00.743Z,4.20
2023-05-25T15:33:43.641Z,4.50
2023-05-25T15:36:15.089Z,4.47
2023-05-25T15:38:43.593Z,4.67
2023-05-25T15:41:11.541Z,4.57
2023-05-25T15:43:38.572Z,4.30
2023-05-25T15:46:05.384Z,4.13
2023-05-25T15:48:32.390Z,4.03
2023-05-25T15:50:59.979Z,3.70
2023-05-25T15:53:26.823Z,4.60
2023-05-25T15:55:53.629Z,4.40
2023-05-25T15:58:20.728Z,4.70
2023-05-25T16:00:47.793Z,4.00
2023-05-25T16:03:14.581Z,4.20
2023-05-25T16:05:41.594Z,4.00
2023-05-25T16:08:17.656Z,3.90
2023-05-25T16:10:44.613Z,4.60
2023-05-25T16:13:11.359Z,3.87
2023-05-25T16:15:38.403Z,4.30
2023-05-25T16:18:05.456Z,4.10
2023-05-25T16:20:40.987Z,4.83
2023-05-25T16:23:08.036Z,5.00
2023-05-25T16:25:34.798Z,4.60
2023-05-25T16:28:01.868Z,4.43
2023-05-25T16:30:28.700Z,4.40
2023-05-25T16:32:55.595Z,4.37
2023-05-25T16:35:22.821Z,4.70
2023-05-25T16:37:49.647Z,4.70
2023-05-25T16:40:16.550Z,5.03
2023-05-25T16:42:43.603Z,4.50
2023-05-25T16:45:10.716Z,4.40
2023-05-25T16:47:37.798Z,4.37
2023-05-25T16:50:05.140Z,4.70
2023-05-25T16:52:32.137Z,5.00
2023-05-25T16:54:59.245Z,4.50
2023-05-25T16:57:26.252Z,4.87
2023-05-25T16:59:53.815Z,4.53
2023-05-25T17:02:20.806Z,4.33
2023-05-25T17:04:47.600Z,4.70
2023-05-25T17:07:14.392Z,4.70
2023-05-25T17:09:41.234Z,5.70
2023-05-25T17:12:08.354Z,4.60
2023-05-25T17:14:35.419Z,4.67
2023-05-25T17:17:02.450Z,4.47
2023-05-25T17:19:29.563Z,4.93
2023-05-25T17:21:59.384Z,4.87
2023-05-25T17:24:26.171Z,5.90
2023-05-25T17:26:53.031Z,5.60
2023-05-25T17:29:19.834Z,7.00
2023-05-25T17:31:49.251Z,5.13
2023-05-25T17:34:16.728Z,4.93
2023-05-25T17:36:43.796Z,5.37
2023-05-25T17:39:10.692Z,4.73
2023-05-25T17:41:37.502Z,4.70
2023-05-25T17:44:04.617Z,5.13
2023-05-25T17:46:36.603Z,4.30
2023-05-25T17:49:04.516Z,5.00
2023-05-25T17:51:31.306Z,5.13
2023-05-25T17:53:58.065Z,4.47
2023-05-25T17:56:25.207Z,4.93
2023-05-25T17:58:52.100Z,5.00
2023-05-25T18:01:19.225Z,4.83
2023-05-25T18:03:46.548Z,5.20
2023-05-25T18:06:13.557Z,5.10
2023-05-25T18:08:40.378Z,4.90
2023-05-25T18:11:07.187Z,5.77
2023-05-25T18:13:40.323Z,4.83
2023-05-25T18:16:07.334Z,5.17
2023-05-25T18:18:34.105Z,6.20
2023-05-25T18:21:00.984Z,6.13
2023-05-25T18:23:28.358Z,6.40
2023-05-25T18:25:55.570Z,6.77
2023-05-25T18:28:23.550Z,6.13
2023-05-25T18:30:50.408Z,6.40
2023-05-25T18:33:17.512Z,6.60
2023-05-25T18:35:44.447Z,5.90
2023-05-25T18:38:11.399Z,6.20
2023-05-25T18:40:38.268Z,6.30
2023-05-25T18:43:05.880Z,5.90
2023-05-25T18:45:32.671Z,6.37
2023-05-25T18:48:07.756Z,6.10
2023-05-25T18:50:35.165Z,5.47
2023-05-25T18:53:02.554Z,5.70
2023-05-25T18:55:29.829Z,5.70
2023-05-25T18:57:56.931Z,6.20
2023-05-25T19:00:24.012Z,5.97
2023-05-25T19:02:51.028Z,5.83
2023-05-25T19:05:20.330Z,6.23
2023-05-25T19:10:16.938Z,5.30
2023-05-25T19:12:44.043Z,6.10
2023-05-25T19:15:11.020Z,5.57
2023-05-25T19:17:37.841Z,5.13
2023-05-25T19:20:04.984Z,4.90
2023-05-25T19:22:31.954Z,5.27
2023-05-25T19:25:01.083Z,5.43
2023-05-25T19:27:28.469Z,5.07
2023-05-25T19:29:55.437Z,5.00
2023-05-25T19:32:22.265Z,5.67
2023-05-25T19:34:49.385Z,4.97
2023-05-25T19:37:16.155Z,5.30
2023-05-25T19:39:42.903Z,4.93
2023-05-25T19:42:09.958Z,5.30
2023-05-25T19:44:37.246Z,5.23
2023-05-25T19:47:04.412Z,4.80
2023-05-25T19:49:31.690Z,4.50
2023-05-25T19:51:58.602Z,5.97
2023-05-25T19:54:25.344Z,4.70
2023-05-25T19:56:52.180Z,4.80
2023-05-25T19:59:21.562Z,5.10
2023-05-25T20:01:48.514Z,4.93
2023-05-25T20:04:15.584Z,4.93
2023-05-25T20:06:42.430Z,5.17
2023-05-25T20:09:12.530Z,5.17
2023-05-25T20:11:39.397Z,5.10
2023-05-25T20:14:07.573Z,4.87
2023-05-25T20:16:34.492Z,6.07
2023-05-25T20:19:01.884Z,5.17
2023-05-25T20:21:30.661Z,5.10
2023-05-25T20:23:57.934Z,6.13
2023-05-25T20:26:24.733Z,4.90
2023-05-25T20:28:51.508Z,4.93
2023-05-25T20:31:18.582Z,5.60
2023-05-25T20:33:45.648Z,5.13
2023-05-25T20:36:14.311Z,5.67
2023-05-25T20:38:45.429Z,5.60
2023-05-25T20:41:12.379Z,5.43
2023-05-25T20:43:39.711Z,5.50
2023-05-25T20:46:10.000Z,5.60
2023-05-25T20:48:39.011Z,5.80
2023-05-25T20:51:05.951Z,5.73
2023-05-25T20:53:32.702Z,5.40
2023-05-25T20:55:59.756Z,5.70
2023-05-25T20:58:26.544Z,6.10
2023-05-25T21:00:53.660Z,5.43
2023-05-25T21:03:20.550Z,5.37
2023-05-25T21:05:47.555Z,5.87
2023-05-25T21:08:14.781Z,5.00
2023-05-25T21:10:41.617Z,5.90
2023-05-25T21:13:08.636Z,5.87
2023-05-25T21:15:35.379Z,5.40
2023-05-25T21:18:03.600Z,5.40
2023-05-25T21:20:30.899Z,5.50
2023-05-25T21:22:57.685Z,6.23
2023-05-25T21:25:24.448Z,5.80
2023-05-25T21:27:51.557Z,5.60
2023-05-25T21:30:19.462Z,5.30
2023-05-25T21:32:46.733Z,5.90
2023-05-25T21:35:13.803Z,5.57
2023-05-25T21:37:40.964Z,5.43
2023-05-25T21:40:08.266Z,6.07
2023-05-25T21:42:35.305Z,5.50
2023-05-25T21:45:02.355Z,5.90
2023-05-25T21:47:29.691Z,6.43
2023-05-25T21:49:57.549Z,5.20
2023-05-25T21:52:24.376Z,6.30
2023-05-25T21:54:51.450Z,6.03
2023-05-25T21:57:18.553Z,6.47
2023-05-25T21:59:45.533Z,5.43
2023-05-25T22:02:12.337Z,5.50
2023-05-25T22:04:39.256Z,5.57
2023-05-25T22:07:06.486Z,5.50
2023-05-25T22:09:33.523Z,5.53
2023-05-25T22:12:00.789Z,5.53
2023-05-25T22:14:27.874Z,5.67
2023-05-25T22:16:54.666Z,5.90
2023-05-25T22:19:21.700Z,6.20
2023-05-25T22:21:48.420Z,5.60
2023-05-25T22:24:15.202Z,6.70
2023-05-25T22:26:42.291Z,5.97
2023-05-25T22:29:09.020Z,6.07
2023-05-25T22:31:35.870Z,6.30
2023-05-25T22:34:02.921Z,6.30
2023-05-25T22:36:29.664Z,5.90
2023-05-25T22:38:56.759Z,5.70
2023-05-25T22:41:23.493Z,5.83
2023-05-25T22:43:50.300Z,7.23
2023-05-25T22:46:17.414Z,6.33
2023-05-25T22:48:44.334Z,6.17
2023-05-25T22:51:11.207Z,5.63
2023-05-25T22:53:38.326Z,6.20
2023-05-25T22:56:05.516Z,6.93
2023-05-25T22:58:32.253Z,6.50
2023-05-25T23:00:59.339Z,5.93
2023-05-25T23:03:26.298Z,6.97
2023-05-25T23:05:53.412Z,6.27
2023-05-25T23:08:20.181Z,6.57
2023-05-25T23:10:46.906Z,7.73
2023-05-25T23:13:15.174Z,6.97
2023-05-25T23:15:45.218Z,6.67
2023-05-25T23:18:12.166Z,6.23
2023-05-25T23:20:40.530Z,6.97
2023-05-25T23:23:07.713Z,6.03
2023-05-25T23:25:34.616Z,6.07
2023-05-25T23:28:01.834Z,6.23
2023-05-25T23:30:28.559Z,6.33
2023-05-25T23:32:55.351Z,6.30
2023-05-25T23:35:23.500Z,6.63
2023-05-25T23:37:52.068Z,6.77
2023-05-25T23:40:19.063Z,6.20
2023-05-25T23:42:46.285Z,6.57
2023-05-25T23:45:14.006Z,6.23
2023-05-25T23:47:40.944Z,6.87
2023-05-25T23:50:08.421Z,6.63
2023-05-25T23:52:35.280Z,6.30
2023-05-25T23:55:02.311Z,6.80
2023-05-25T23:57:29.366Z,6.70
2023-05-25T23:59:56.181Z,6.27
